Messick, Indiana
Current Conditions -  °F | °C
As of 4:53 PM on Wednesday 22 Oct 2014 (Local Time) from KMIE Reporting Station
Few Clouds Few Clouds  
Wind Chill: 57°   Ceiling: Unl
Heat Index: 57°   Visibility: 10mi
Dew Point: 41°   Wind: 6mph
Humidity: 55%   Direction: 70°ENE
Pressure: 30.26"   Gusts: NA
Location:  39.9231°N, 85.3444°W
Report Text: KMIE 222053Z 07005KT 10SM FEW036 14/05 A3026 RMK AO2 SLP247 T01390050 56014
Loading
Personal Weather Stations






























Interactive Weather Map
Tropical Storm Tracking
New forecast layout! Learn more

10-Day Weather Forecast

Advertisements
Track Severe Weather on mobile